createdAt,value
2023-03-03T00:02:06.889Z,97959.84
2023-03-03T00:04:33.428Z,97957.06
2023-03-03T00:06:59.891Z,97958.50
2023-03-03T00:09:26.532Z,97955.56
2023-03-03T00:11:56.176Z,97959.38
2023-03-03T00:14:23.888Z,97956.84
2023-03-03T00:16:50.794Z,97950.63
2023-03-03T00:19:20.317Z,97954.88
2023-03-03T00:21:47.283Z,97951.78
2023-03-03T00:24:15.456Z,97955.97
2023-03-03T00:26:42.528Z,97955.94
2023-03-03T00:29:24.426Z,97964.88
2023-03-03T00:31:50.908Z,97962.63
2023-03-03T00:34:20.776Z,97974.25
2023-03-03T00:36:47.235Z,97985.47
2023-03-03T00:39:22.478Z,97996.78
2023-03-03T00:41:49.008Z,98017.13
2023-03-03T00:44:39.332Z,98029.94
2023-03-03T00:47:31.015Z,98040.88
2023-03-03T00:50:18.171Z,98051.28
2023-03-03T00:52:54.082Z,98054.59
2023-03-03T00:55:20.553Z,98063.38
2023-03-03T00:57:47.046Z,98068.94
2023-03-03T01:00:16.392Z,98070.50
2023-03-03T01:02:45.391Z,98077.56
2023-03-03T01:05:16.628Z,98081.00
2023-03-03T01:07:43.177Z,98078.13
2023-03-03T01:10:09.904Z,98087.00
2023-03-03T01:12:36.352Z,98098.09
2023-03-03T01:15:02.878Z,98097.50
2023-03-03T01:17:29.711Z,98099.97
2023-03-03T01:19:57.106Z,98098.19
2023-03-03T01:22:23.598Z,98108.44
2023-03-03T01:24:50.073Z,98116.69
2023-03-03T01:27:16.602Z,98114.13
2023-03-03T01:29:43.108Z,98119.34
2023-03-03T01:32:09.548Z,98122.31
2023-03-03T01:34:36.061Z,98119.09
2023-03-03T01:37:02.636Z,98128.84
2023-03-03T01:39:29.079Z,98135.75
2023-03-03T01:41:55.534Z,98146.50
2023-03-03T01:44:22.045Z,98157.19
2023-03-03T01:46:55.648Z,98173.22
2023-03-03T01:49:23.070Z,98176.06
2023-03-03T01:51:51.103Z,98184.25
2023-03-03T01:54:22.024Z,98189.38
2023-03-03T01:56:48.862Z,98195.91
2023-03-03T01:59:20.280Z,98201.00
2023-03-03T02:01:47.419Z,98203.81
2023-03-03T02:04:13.958Z,98202.94
2023-03-03T02:06:42.033Z,98211.28
2023-03-03T02:09:12.873Z,98217.91
2023-03-03T02:11:39.375Z,98210.78
2023-03-03T02:14:05.857Z,98229.31
2023-03-03T02:16:32.539Z,98229.88
2023-03-03T02:18:59.566Z,98237.94
2023-03-03T02:21:28.723Z,98245.94
2023-03-03T02:24:07.628Z,98250.94
2023-03-03T02:26:35.897Z,98244.19
2023-03-03T02:29:06.027Z,98250.66
2023-03-03T02:31:32.676Z,98239.06
2023-03-03T02:33:59.655Z,98240.16
2023-03-03T02:36:30.307Z,98244.78
2023-03-03T02:39:02.928Z,98249.53
2023-03-03T02:41:31.124Z,98255.53
2023-03-03T02:44:00.190Z,98266.91
2023-03-03T02:46:27.765Z,98265.97
2023-03-03T02:48:54.232Z,98260.78
2023-03-03T02:51:20.826Z,98258.66
2023-03-03T02:53:47.296Z,98261.44
2023-03-03T02:56:13.931Z,98258.69
2023-03-03T02:58:40.366Z,98258.06
2023-03-03T03:01:07.420Z,98268.44
2023-03-03T03:03:35.042Z,98285.53
2023-03-03T03:06:04.276Z,98284.34
2023-03-03T03:08:30.863Z,98300.38
2023-03-03T03:10:57.583Z,98301.88
2023-03-03T03:13:26.084Z,98296.50
2023-03-03T03:15:53.005Z,98306.41
2023-03-03T03:18:19.723Z,98322.34
2023-03-03T03:20:48.373Z,98322.56
2023-03-03T03:23:15.078Z,98323.84
2023-03-03T03:25:46.565Z,98325.00
2023-03-03T03:28:19.861Z,98341.19
2023-03-03T03:30:46.736Z,98332.56
2023-03-03T03:33:13.297Z,98332.94
2023-03-03T03:35:45.532Z,98334.94
2023-03-03T03:38:13.525Z,98350.22
2023-03-03T03:40:40.304Z,98357.31
2023-03-03T03:43:06.754Z,98354.00
2023-03-03T03:45:33.429Z,98362.88
2023-03-03T03:48:01.571Z,98366.03
2023-03-03T03:50:29.240Z,98368.00
2023-03-03T03:52:55.862Z,98369.41
2023-03-03T03:55:23.046Z,98360.25
2023-03-03T03:57:50.012Z,98359.81
2023-03-03T04:00:16.491Z,98362.53
2023-03-03T04:02:49.119Z,98364.00
2023-03-03T04:05:17.964Z,98364.31
2023-03-03T04:07:44.728Z,98371.44
2023-03-03T04:10:11.460Z,98372.00
2023-03-03T04:12:39.072Z,98391.28
2023-03-03T04:15:09.967Z,98381.41
2023-03-03T04:17:37.552Z,98377.84
2023-03-03T04:20:04.544Z,98379.31
2023-03-03T04:22:36.015Z,98381.25
2023-03-03T04:25:05.302Z,98382.75
2023-03-03T04:27:36.338Z,98390.69
2023-03-03T04:30:05.275Z,98386.69
2023-03-03T04:32:33.921Z,98392.34
2023-03-03T04:35:08.259Z,98402.97
2023-03-03T04:37:38.860Z,98389.97
2023-03-03T04:40:06.375Z,98376.38
2023-03-03T04:42:32.974Z,98382.63
2023-03-03T04:44:59.485Z,98387.50
2023-03-03T04:47:26.101Z,98395.00
2023-03-03T04:49:52.881Z,98403.97
2023-03-03T04:52:19.673Z,98418.56
2023-03-03T04:54:46.243Z,98410.97
2023-03-03T04:57:13.273Z,98425.56
2023-03-03T04:59:39.778Z,98424.63
2023-03-03T05:02:06.312Z,98432.50
2023-03-03T05:04:33.213Z,98441.50
2023-03-03T05:06:59.700Z,98440.16
2023-03-03T05:09:26.167Z,98447.56
2023-03-03T05:11:52.778Z,98443.78
2023-03-03T05:14:19.217Z,98434.63
2023-03-03T05:16:45.745Z,98438.53
2023-03-03T05:19:12.188Z,98437.94
2023-03-03T05:21:42.312Z,98438.19
2023-03-03T05:24:09.450Z,98434.19
2023-03-03T05:26:36.016Z,98436.28
2023-03-03T05:29:02.510Z,98438.28
2023-03-03T05:31:29.028Z,98441.50
2023-03-03T05:33:55.587Z,98445.91
2023-03-03T05:36:22.067Z,98442.88
2023-03-03T05:38:51.552Z,98458.53
2023-03-03T05:41:22.212Z,98465.91
2023-03-03T05:43:49.179Z,98466.28
2023-03-03T05:46:15.898Z,98465.22
2023-03-03T05:48:43.070Z,98471.19
2023-03-03T05:51:09.810Z,98477.22
2023-03-03T05:53:36.535Z,98474.63
2023-03-03T05:56:03.392Z,98469.09
2023-03-03T05:58:30.343Z,98470.34
2023-03-03T06:00:57.042Z,98472.81
2023-03-03T06:03:23.706Z,98476.69
2023-03-03T06:05:50.352Z,98479.78
2023-03-03T06:08:17.004Z,98482.22
2023-03-03T06:10:43.621Z,98469.88
2023-03-03T06:13:12.782Z,98485.41
2023-03-03T06:15:39.460Z,98488.09
2023-03-03T06:18:06.179Z,98486.88
2023-03-03T06:20:35.580Z,98499.94
2023-03-03T06:23:02.317Z,98497.69
2023-03-03T06:25:30.950Z,98498.94
2023-03-03T06:27:58.084Z,98505.16
2023-03-03T06:30:24.757Z,98508.00
2023-03-03T06:32:51.539Z,98510.72
2023-03-03T06:35:18.449Z,98512.22
2023-03-03T06:37:45.298Z,98526.19
2023-03-03T06:40:12.496Z,98513.75
2023-03-03T06:42:39.242Z,98527.63
2023-03-03T06:45:06.180Z,98530.72
2023-03-03T06:47:33.981Z,98541.16
2023-03-03T06:50:00.616Z,98527.56
2023-03-03T06:52:27.325Z,98529.41
2023-03-03T06:54:54.959Z,98531.38
2023-03-03T06:57:29.168Z,98525.78
2023-03-03T06:59:57.898Z,98522.56
2023-03-03T07:02:24.563Z,98532.16
2023-03-03T07:04:51.164Z,98530.34
2023-03-03T07:07:25.023Z,98542.88
2023-03-03T07:09:56.084Z,98549.72
2023-03-03T07:12:26.892Z,98561.72
2023-03-03T07:14:58.475Z,98571.97
2023-03-03T07:17:25.422Z,98582.22
2023-03-03T07:19:52.086Z,98582.56
2023-03-03T07:22:20.419Z,98600.59
2023-03-03T07:24:57.874Z,98599.09
2023-03-03T07:27:26.333Z,98596.94
2023-03-03T07:29:54.364Z,98611.84
2023-03-03T07:32:40.516Z,98607.28
2023-03-03T07:35:40.248Z,98609.94
2023-03-03T07:38:35.372Z,98615.78
2023-03-03T07:41:03.699Z,98617.03
2023-03-03T07:44:06.560Z,98612.53
2023-03-03T07:46:37.114Z,98608.63
2023-03-03T07:49:12.311Z,98613.41
2023-03-03T07:51:42.134Z,98611.44
2023-03-03T07:54:32.051Z,98615.44
2023-03-03T07:57:26.896Z,98632.13
2023-03-03T07:59:56.016Z,98624.41
2023-03-03T08:02:28.757Z,98635.66
2023-03-03T08:04:55.598Z,98638.06
2023-03-03T08:07:22.962Z,98650.75
2023-03-03T08:09:51.108Z,98645.06
2023-03-03T08:12:45.188Z,98647.44
2023-03-03T08:15:25.384Z,98642.53
2023-03-03T08:17:53.474Z,98639.44
2023-03-03T08:20:29.313Z,98646.94
2023-03-03T08:22:56.086Z,98653.41
2023-03-03T08:25:23.000Z,98659.50
2023-03-03T08:27:49.866Z,98674.09
2023-03-03T08:30:16.679Z,98659.38
2023-03-03T08:32:43.532Z,98650.81
2023-03-03T08:35:10.425Z,98656.00
2023-03-03T08:37:37.012Z,98654.81
2023-03-03T08:40:03.703Z,98658.44
2023-03-03T08:42:30.510Z,98658.16
2023-03-03T08:44:57.130Z,98669.06
2023-03-03T08:47:23.962Z,98657.47
2023-03-03T08:49:50.626Z,98662.53
2023-03-03T08:52:17.196Z,98658.81
2023-03-03T08:54:43.849Z,98665.72
2023-03-03T08:57:10.438Z,98659.97
2023-03-03T08:59:39.085Z,98677.00
2023-03-03T09:02:08.896Z,98675.13
2023-03-03T09:04:35.619Z,98674.06
2023-03-03T09:07:02.249Z,98659.81
2023-03-03T09:09:28.964Z,98665.22
2023-03-03T09:12:02.209Z,98674.72
2023-03-03T09:14:29.636Z,98662.41
2023-03-03T09:16:56.860Z,98666.44
2023-03-03T09:19:29.547Z,98667.88
2023-03-03T09:21:57.602Z,98671.66
2023-03-03T09:24:29.239Z,98678.59
2023-03-03T09:26:59.507Z,98696.03
2023-03-03T09:29:30.288Z,98704.03
2023-03-03T09:31:59.634Z,98698.53
2023-03-03T09:34:41.130Z,98701.69
2023-03-03T09:37:23.824Z,98696.13
2023-03-03T09:39:55.161Z,98692.91
2023-03-03T09:42:31.040Z,98708.56
2023-03-03T09:45:22.516Z,98697.78
2023-03-03T09:47:52.970Z,98707.94
2023-03-03T09:50:30.270Z,98703.88
2023-03-03T09:53:22.677Z,98709.44
2023-03-03T09:56:08.010Z,98700.91
2023-03-03T09:58:53.618Z,98700.00
2023-03-03T10:01:34.342Z,98718.41
2023-03-03T10:04:00.857Z,98713.88
2023-03-03T10:06:42.726Z,98708.81
2023-03-03T10:09:22.506Z,98719.25
2023-03-03T10:12:10.367Z,98725.69
2023-03-03T10:15:11.092Z,98727.94
2023-03-03T10:17:53.525Z,98718.09
2023-03-03T10:20:49.161Z,98732.78
2023-03-03T10:23:43.358Z,98735.47
2023-03-03T10:26:44.646Z,98740.44
2023-03-03T10:29:34.177Z,98732.94
2023-03-03T10:32:30.454Z,98745.16
2023-03-03T10:35:06.243Z,98752.13
2023-03-03T10:37:54.128Z,98761.63
2023-03-03T10:40:35.020Z,98767.06
2023-03-03T10:43:40.166Z,98758.84
2023-03-03T10:46:37.498Z,98755.16
2023-03-03T10:49:14.800Z,98761.91
2023-03-03T10:52:08.687Z,98772.50
2023-03-03T10:55:04.407Z,98770.44
2023-03-03T10:58:01.220Z,98775.16
2023-03-03T11:00:38.950Z,98779.56
2023-03-03T11:03:24.044Z,98797.41
2023-03-03T11:06:17.355Z,98792.34
2023-03-03T11:08:53.023Z,98791.75
2023-03-03T11:12:04.681Z,98785.72
2023-03-03T11:14:47.954Z,98797.88
2023-03-03T11:17:47.034Z,98797.44
2023-03-03T11:20:37.901Z,98785.81
2023-03-03T11:23:17.637Z,98777.50
2023-03-03T11:25:49.245Z,98790.13
2023-03-03T11:28:21.752Z,98786.69
2023-03-03T11:31:06.792Z,98785.41
2023-03-03T11:33:58.475Z,98791.13
2023-03-03T11:36:34.924Z,98783.59
2023-03-03T11:39:22.321Z,98784.13
2023-03-03T11:42:03.643Z,98793.25
2023-03-03T11:45:08.879Z,98782.91
2023-03-03T11:48:04.312Z,98792.72
2023-03-03T11:50:36.091Z,98792.00
2023-03-03T11:53:05.500Z,98786.00
2023-03-03T11:55:39.421Z,98793.47
2023-03-03T11:58:08.394Z,98803.16
2023-03-03T12:01:09.444Z,98797.38
2023-03-03T12:03:58.600Z,98773.31
2023-03-03T12:06:34.271Z,98774.78
2023-03-03T12:09:22.539Z,98777.88
2023-03-03T12:11:54.167Z,98770.25
2023-03-03T12:14:28.660Z,98768.16
2023-03-03T12:16:59.569Z,98769.81
2023-03-03T12:19:44.590Z,98769.97
2023-03-03T12:22:16.806Z,98761.91
2023-03-03T12:25:04.874Z,98769.47
2023-03-03T12:27:38.714Z,98789.41
2023-03-03T12:30:13.631Z,98792.59
2023-03-03T12:32:56.776Z,98772.84
2023-03-03T12:35:29.009Z,98759.97
2023-03-03T12:38:18.714Z,98762.28
2023-03-03T12:41:09.431Z,98763.97
2023-03-03T12:43:58.235Z,98776.66
2023-03-03T12:46:45.152Z,98788.09
2023-03-03T12:49:11.841Z,98778.00
2023-03-03T12:51:41.164Z,98774.69
2023-03-03T12:54:29.353Z,98760.78
2023-03-03T12:57:21.400Z,98759.59
2023-03-03T13:00:21.121Z,98773.88
2023-03-03T13:03:15.334Z,98778.88
2023-03-03T13:05:59.545Z,98773.38
2023-03-03T13:08:52.033Z,98757.06
2023-03-03T13:11:34.350Z,98751.72
2023-03-03T13:14:34.941Z,98740.97
2023-03-03T13:17:22.195Z,98754.22
2023-03-03T13:20:02.716Z,98754.91
2023-03-03T13:22:53.960Z,98734.50
2023-03-03T13:25:31.493Z,98715.47
2023-03-03T13:28:11.943Z,98702.72
2023-03-03T13:30:40.319Z,98713.34
2023-03-03T13:33:20.913Z,98721.84
2023-03-03T13:35:53.701Z,98719.97
2023-03-03T13:38:31.664Z,98709.50
2023-03-03T13:41:17.574Z,98711.16
2023-03-03T13:43:49.664Z,98715.56
2023-03-03T13:46:31.467Z,98724.03
2023-03-03T13:49:16.785Z,98707.25
2023-03-03T13:52:06.039Z,98698.06
2023-03-03T13:54:48.124Z,98708.50
2023-03-03T13:57:25.097Z,98713.69
2023-03-03T14:00:07.405Z,98717.50
2023-03-03T14:03:09.207Z,98717.19
2023-03-03T14:05:44.540Z,98715.63
2023-03-03T14:08:16.121Z,98717.66
2023-03-03T14:10:45.701Z,98715.63
2023-03-03T14:13:13.846Z,98709.03
2023-03-03T14:15:55.641Z,98709.03
2023-03-03T14:18:28.125Z,98704.19
2023-03-03T14:20:56.229Z,98710.66
2023-03-03T14:23:55.795Z,98720.72
2023-03-03T14:26:22.481Z,98716.72
2023-03-03T14:28:49.936Z,98710.47
2023-03-03T14:31:26.617Z,98709.03
2023-03-03T14:34:11.637Z,98703.34
2023-03-03T14:36:43.000Z,98706.53
2023-03-03T14:39:41.581Z,98698.75
2023-03-03T14:42:14.329Z,98703.53
2023-03-03T14:44:47.028Z,98717.66
2023-03-03T14:47:24.172Z,98719.75
2023-03-03T14:49:51.524Z,98729.63
2023-03-03T14:52:24.271Z,98728.09
2023-03-03T14:54:55.869Z,98739.41
2023-03-03T14:57:35.771Z,98720.72
2023-03-03T15:00:10.653Z,98720.59
2023-03-03T15:02:37.927Z,98728.13
2023-03-03T15:05:20.923Z,98719.84
2023-03-03T15:07:55.382Z,98713.34
2023-03-03T15:10:48.409Z,98721.63
2023-03-03T15:13:21.052Z,98743.00
2023-03-03T15:15:59.972Z,98726.63
2023-03-03T15:18:27.521Z,98713.94
2023-03-03T15:21:16.132Z,98685.69
2023-03-03T15:23:56.420Z,98693.38
2023-03-03T15:26:45.247Z,98691.28
2023-03-03T15:29:23.162Z,98662.19
2023-03-03T15:32:04.143Z,98679.38
2023-03-03T15:35:01.502Z,98691.06
2023-03-03T15:37:39.934Z,98674.63
2023-03-03T15:40:34.663Z,98666.78
2023-03-03T15:43:37.608Z,98649.16
2023-03-03T15:46:33.652Z,98640.47
2023-03-03T15:49:00.362Z,98642.97
2023-03-03T15:52:00.991Z,98648.25
2023-03-03T15:55:16.836Z,98650.41
2023-03-03T15:58:04.309Z,98630.84
2023-03-03T16:01:02.040Z,98629.06
2023-03-03T16:03:36.405Z,98614.41
2023-03-03T16:06:08.860Z,98596.84
2023-03-03T16:09:03.180Z,98592.94
2023-03-03T16:11:54.065Z,98567.03
2023-03-03T16:14:42.686Z,98563.59
2023-03-03T16:17:24.041Z,98547.47
2023-03-03T16:20:02.046Z,98540.63
2023-03-03T16:22:47.484Z,98531.28
2023-03-03T16:25:38.504Z,98505.53
2023-03-03T16:28:25.835Z,98488.66
2023-03-03T16:31:10.565Z,98483.31
2023-03-03T16:33:43.864Z,98484.03
2023-03-03T16:36:37.715Z,98471.69
2023-03-03T16:39:15.434Z,98471.88
2023-03-03T16:41:51.327Z,98465.63
2023-03-03T16:44:42.039Z,98451.50
2023-03-03T16:47:39.153Z,98440.00
2023-03-03T16:50:13.081Z,98434.00
2023-03-03T16:52:54.474Z,98436.00
2023-03-03T16:55:56.240Z,98437.25
2023-03-03T16:58:43.790Z,98449.00
2023-03-03T17:01:26.373Z,98445.66
2023-03-03T17:04:02.918Z,98462.84
2023-03-03T17:06:34.164Z,98478.09
2023-03-03T17:09:03.809Z,98457.16
2023-03-03T17:12:00.664Z,98442.41
2023-03-03T17:14:41.964Z,98446.97
2023-03-03T17:17:32.665Z,98449.63
2023-03-03T17:20:22.185Z,98452.75
2023-03-03T17:23:22.560Z,98458.50
2023-03-03T17:26:22.253Z,98456.59
2023-03-03T17:28:52.571Z,98452.19
2023-03-03T17:31:50.864Z,98455.81
2023-03-03T17:34:48.696Z,98430.78
2023-03-03T17:37:30.607Z,98415.16
2023-03-03T17:40:06.051Z,98413.38
2023-03-03T17:42:32.537Z,98406.31
2023-03-03T17:45:13.057Z,98402.28
2023-03-03T17:47:50.044Z,98401.72
2023-03-03T17:50:50.916Z,98359.31
2023-03-03T17:53:36.639Z,98363.00
2023-03-03T17:56:08.296Z,98375.72
2023-03-03T17:58:53.350Z,98377.88
2023-03-03T18:01:21.398Z,98369.53
2023-03-03T18:04:25.149Z,98368.78
2023-03-03T18:07:13.819Z,98350.19
2023-03-03T18:09:49.650Z,98347.88
2023-03-03T18:12:42.517Z,98333.84
2023-03-03T18:15:18.316Z,98326.53
2023-03-03T18:18:14.116Z,98321.47
2023-03-03T18:20:59.919Z,98323.97
2023-03-03T18:23:39.737Z,98316.31
2023-03-03T18:26:35.260Z,98324.06
2023-03-03T18:29:16.852Z,98319.44
2023-03-03T18:32:10.933Z,98304.66
2023-03-03T18:34:39.466Z,98312.41
2023-03-03T18:37:30.716Z,98313.31
2023-03-03T18:40:00.225Z,98308.72
2023-03-03T18:42:42.344Z,98305.94
2023-03-03T18:45:31.668Z,98300.91
2023-03-03T18:48:01.074Z,98302.50
2023-03-03T18:50:40.131Z,98296.31
2023-03-03T18:53:14.545Z,98296.31
2023-03-03T18:55:48.424Z,98291.59
2023-03-03T18:58:14.855Z,98289.69
2023-03-03T19:00:46.259Z,98292.09
2023-03-03T19:03:29.008Z,98278.38
2023-03-03T19:05:57.916Z,98281.53
2023-03-03T19:08:28.528Z,98296.69
2023-03-03T19:10:58.888Z,98302.69
2023-03-03T19:13:34.459Z,98288.22
2023-03-03T19:16:01.767Z,98290.88
2023-03-03T19:18:29.227Z,98294.00
2023-03-03T19:21:00.866Z,98298.75
2023-03-03T19:23:47.630Z,98296.78
2023-03-03T19:26:28.573Z,98292.66
2023-03-03T19:29:00.438Z,98290.97
2023-03-03T19:31:35.018Z,98297.63
2023-03-03T19:34:13.389Z,98285.06
2023-03-03T19:36:48.870Z,98291.16
2023-03-03T19:39:37.002Z,98283.41
2023-03-03T19:42:18.421Z,98284.78
2023-03-03T19:45:41.899Z,98291.63
2023-03-03T19:48:45.973Z,98292.75
2023-03-03T19:51:28.225Z,98293.94
2023-03-03T19:54:16.050Z,98300.34
2023-03-03T19:56:50.839Z,98291.16
2023-03-03T19:59:36.125Z,98299.91
2023-03-03T20:02:12.399Z,98307.81
2023-03-03T20:04:52.375Z,98300.53
2023-03-03T20:07:33.834Z,98293.09
2023-03-03T20:10:28.554Z,98287.56
2023-03-03T20:13:19.930Z,98292.13
2023-03-03T20:15:55.786Z,98275.53
2023-03-03T20:18:40.079Z,98282.28
2023-03-03T20:21:22.122Z,98283.00
2023-03-03T20:24:03.231Z,98283.00
2023-03-03T20:27:11.030Z,98287.06
2023-03-03T20:29:50.416Z,98280.75
2023-03-03T20:32:50.968Z,98288.16
2023-03-03T20:35:30.862Z,98283.13
2023-03-03T20:38:06.942Z,98271.41
2023-03-03T20:40:36.573Z,98265.84
2023-03-03T20:43:13.894Z,98266.03
2023-03-03T20:46:02.661Z,98274.22
2023-03-03T20:48:44.470Z,98285.13
2023-03-03T20:51:16.166Z,98277.84
2023-03-03T20:53:49.268Z,98262.16
2023-03-03T20:56:20.753Z,98264.34
2023-03-03T20:58:59.580Z,98267.31
2023-03-03T21:01:38.770Z,98268.88
2023-03-03T21:04:22.596Z,98257.91
2023-03-03T21:06:49.328Z,98270.56
2023-03-03T21:09:23.894Z,98273.69
2023-03-03T21:11:50.712Z,98280.06
2023-03-03T21:14:27.620Z,98281.19
2023-03-03T21:16:56.810Z,98277.03
2023-03-03T21:19:28.636Z,98279.13
2023-03-03T21:21:55.320Z,98280.06
2023-03-03T21:24:22.664Z,98275.81
2023-03-03T21:26:59.855Z,98272.09
2023-03-03T21:29:33.948Z,98273.06
2023-03-03T21:32:05.651Z,98273.81
2023-03-03T21:34:39.814Z,98268.44
2023-03-03T21:37:10.913Z,98267.25
2023-03-03T21:39:38.962Z,98276.38
2023-03-03T21:42:07.222Z,98275.91
2023-03-03T21:44:39.124Z,98274.91
2023-03-03T21:47:06.767Z,98276.22
2023-03-03T21:49:33.565Z,98287.72
2023-03-03T21:52:00.367Z,98282.84
2023-03-03T21:54:27.025Z,98283.03
2023-03-03T21:56:53.973Z,98292.47
2023-03-03T21:59:20.716Z,98298.91
2023-03-03T22:01:47.374Z,98293.47
2023-03-03T22:04:14.178Z,98290.97
2023-03-03T22:06:40.782Z,98297.06
2023-03-03T22:09:07.436Z,98301.16
2023-03-03T22:11:34.086Z,98309.19
2023-03-03T22:14:00.701Z,98310.03
2023-03-03T22:16:27.325Z,98321.66
2023-03-03T22:18:53.916Z,98316.84
2023-03-03T22:21:20.589Z,98321.84
2023-03-03T22:23:47.322Z,98321.84
2023-03-03T22:26:13.956Z,98322.03
2023-03-03T22:28:42.037Z,98323.00
2023-03-03T22:31:10.491Z,98321.72
2023-03-03T22:33:37.103Z,98328.47
2023-03-03T22:36:03.843Z,98338.81
2023-03-03T22:38:30.470Z,98331.22
2023-03-03T22:40:57.075Z,98334.13
2023-03-03T22:43:25.658Z,98334.19
2023-03-03T22:45:52.301Z,98333.84
2023-03-03T22:48:19.024Z,98340.13
2023-03-03T22:50:47.364Z,98329.56
2023-03-03T22:53:14.003Z,98328.63
2023-03-03T22:55:40.716Z,98329.75
2023-03-03T22:58:09.453Z,98330.63
2023-03-03T23:00:38.550Z,98331.63
2023-03-03T23:03:06.399Z,98333.31
2023-03-03T23:05:33.210Z,98319.31
2023-03-03T23:07:59.878Z,98324.50
2023-03-03T23:10:26.437Z,98311.75
2023-03-03T23:12:52.998Z,98314.97
2023-03-03T23:15:20.226Z,98318.88
2023-03-03T23:17:46.822Z,98312.75
2023-03-03T23:20:15.464Z,98313.22
2023-03-03T23:22:42.112Z,98332.56
2023-03-03T23:25:09.197Z,98327.00
2023-03-03T23:27:35.807Z,98322.38
2023-03-03T23:30:02.412Z,98330.34
2023-03-03T23:32:29.108Z,98330.34
2023-03-03T23:34:55.946Z,98340.13
2023-03-03T23:37:22.601Z,98341.16
2023-03-03T23:39:49.170Z,98328.38
2023-03-03T23:42:15.820Z,98327.75
2023-03-03T23:44:42.445Z,98325.81
2023-03-03T23:47:09.248Z,98320.47
2023-03-03T23:49:35.897Z,98316.03
2023-03-03T23:52:02.557Z,98313.06
2023-03-03T23:54:29.154Z,98310.19
2023-03-03T23:56:55.834Z,98305.06
2023-03-03T23:59:22.416Z,98309.94
